sensor_id;sensor_type;location;lat;lon;timestamp;temperature;humidity
59703;DHT22;45570;48.782;8.332;2023-04-24T00:01:08;10.20;99.90
59703;DHT22;45570;48.782;8.332;2023-04-24T00:03:37;10.30;99.90
59703;DHT22;45570;48.782;8.332;2023-04-24T00:06:07;10.40;99.90
59703;DHT22;45570;48.782;8.332;2023-04-24T00:08:36;10.50;99.90
59703;DHT22;45570;48.782;8.332;2023-04-24T00:11:05;10.40;99.90
59703;DHT22;45570;48.782;8.332;2023-04-24T00:13:35;10.40;99.90
59703;DHT22;45570;48.782;8.332;2023-04-24T00:16:06;10.60;99.90
59703;DHT22;45570;48.782;8.332;2023-04-24T00:18:35;10.60;99.90
59703;DHT22;45570;48.782;8.332;2023-04-24T00:21:05;10.60;99.90
59703;DHT22;45570;48.782;8.332;2023-04-24T00:23:34;10.70;99.90
59703;DHT22;45570;48.782;8.332;2023-04-24T00:26:04;10.80;99.90
59703;DHT22;45570;48.782;8.332;2023-04-24T00:28:33;10.90;99.90
59703;DHT22;45570;48.782;8.332;2023-04-24T00:31:05;11.10;99.90
59703;DHT22;45570;48.782;8.332;2023-04-24T00:33:35;11.10;99.90
59703;DHT22;45570;48.782;8.332;2023-04-24T00:36:04;11.10;99.90
59703;DHT22;45570;48.782;8.332;2023-04-24T00:38:34;11.00;99.90
59703;DHT22;45570;48.782;8.332;2023-04-24T00:41:03;11.00;99.90
59703;DHT22;45570;48.782;8.332;2023-04-24T00:43:33;11.00;99.90
59703;DHT22;45570;48.782;8.332;2023-04-24T00:46:02;11.00;99.90
59703;DHT22;45570;48.782;8.332;2023-04-24T00:48:34;11.00;99.90
59703;DHT22;45570;48.782;8.332;2023-04-24T00:51:04;11.00;99.90
59703;DHT22;45570;48.782;8.332;2023-04-24T00:53:33;11.00;99.90
59703;DHT22;45570;48.782;8.332;2023-04-24T00:56:02;11.00;99.90
59703;DHT22;45570;48.782;8.332;2023-04-24T00:58:32;11.00;99.90
59703;DHT22;45570;48.782;8.332;2023-04-24T01:01:01;11.20;99.90
59703;DHT22;45570;48.782;8.332;2023-04-24T01:03:36;11.20;99.90
59703;DHT22;45570;48.782;8.332;2023-04-24T01:06:06;11.10;99.90
59703;DHT22;45570;48.782;8.332;2023-04-24T01:08:36;11.10;99.90
59703;DHT22;45570;48.782;8.332;2023-04-24T01:11:06;11.10;99.90
59703;DHT22;45570;48.782;8.332;2023-04-24T01:13:35;11.30;99.90
59703;DHT22;45570;48.782;8.332;2023-04-24T01:16:04;11.30;99.90
59703;DHT22;45570;48.782;8.332;2023-04-24T01:18:35;11.10;99.90
59703;DHT22;45570;48.782;8.332;2023-04-24T01:21:04;11.00;99.90
59703;DHT22;45570;48.782;8.332;2023-04-24T06:32:54;9.90;99.90
59703;DHT22;45570;48.782;8.332;2023-04-24T06:52:06;10.20;99.90
59703;DHT22;45570;48.782;8.332;2023-04-24T06:54:36;10.10;99.90
59703;DHT22;45570;48.782;8.332;2023-04-24T06:57:05;10.10;99.90
59703;DHT22;45570;48.782;8.332;2023-04-24T07:19:49;10.10;99.90
59703;DHT22;45570;48.782;8.332;2023-04-24T07:22:18;10.10;99.90
59703;DHT22;45570;48.782;8.332;2023-04-24T07:24:47;10.20;99.90
59703;DHT22;45570;48.782;8.332;2023-04-24T07:27:16;10.40;99.90
59703;DHT22;45570;48.782;8.332;2023-04-24T07:29:45;10.60;99.90
59703;DHT22;45570;48.782;8.332;2023-04-24T07:32:14;10.80;99.90
59703;DHT22;45570;48.782;8.332;2023-04-24T07:34:45;10.70;99.90
59703;DHT22;45570;48.782;8.332;2023-04-24T07:37:16;10.60;99.90
59703;DHT22;45570;48.782;8.332;2023-04-24T07:39:45;10.50;99.90
59703;DHT22;45570;48.782;8.332;2023-04-24T07:42:15;10.60;99.90
59703;DHT22;45570;48.782;8.332;2023-04-24T07:44:44;10.60;99.90
59703;DHT22;45570;48.782;8.332;2023-04-24T07:47:14;11.00;99.90
59703;DHT22;45570;48.782;8.332;2023-04-24T07:49:46;11.60;99.90
59703;DHT22;45570;48.782;8.332;2023-04-24T07:52:23;12.10;99.90
59703;DHT22;45570;48.782;8.332;2023-04-24T07:54:52;12.50;99.90
59703;DHT22;45570;48.782;8.332;2023-04-24T07:57:25;12.30;99.90
59703;DHT22;45570;48.782;8.332;2023-04-24T07:59:55;12.00;99.90
59703;DHT22;45570;48.782;8.332;2023-04-24T08:02:24;11.90;99.90
59703;DHT22;45570;48.782;8.332;2023-04-24T08:04:55;11.60;99.90
59703;DHT22;45570;48.782;8.332;2023-04-24T08:07:28;11.30;99.90
59703;DHT22;45570;48.782;8.332;2023-04-24T08:09:57;11.10;99.90
59703;DHT22;45570;48.782;8.332;2023-04-24T08:12:28;11.00;99.90
59703;DHT22;45570;48.782;8.332;2023-04-24T08:14:58;10.80;99.90
59703;DHT22;45570;48.782;8.332;2023-04-24T08:17:27;10.60;99.90
59703;DHT22;45570;48.782;8.332;2023-04-24T08:19:59;10.50;99.90
59703;DHT22;45570;48.782;8.332;2023-04-24T08:22:32;10.40;99.90
59703;DHT22;45570;48.782;8.332;2023-04-24T08:25:01;10.40;99.90
59703;DHT22;45570;48.782;8.332;2023-04-24T08:27:31;10.50;99.90
59703;DHT22;45570;48.782;8.332;2023-04-24T08:30:01;10.50;99.90
59703;DHT22;45570;48.782;8.332;2023-04-24T08:32:30;10.60;99.90
59703;DHT22;45570;48.782;8.332;2023-04-24T08:35:00;10.70;99.90
59703;DHT22;45570;48.782;8.332;2023-04-24T08:37:30;10.80;99.90
59703;DHT22;45570;48.782;8.332;2023-04-24T08:40:00;10.90;99.90
59703;DHT22;45570;48.782;8.332;2023-04-24T08:42:30;10.90;99.90
59703;DHT22;45570;48.782;8.332;2023-04-24T08:45:00;11.00;99.90
59703;DHT22;45570;48.782;8.332;2023-04-24T08:47:30;11.00;99.90
59703;DHT22;45570;48.782;8.332;2023-04-24T08:50:00;10.90;99.90
59703;DHT22;45570;48.782;8.332;2023-04-24T08:52:32;10.90;99.90
59703;DHT22;45570;48.782;8.332;2023-04-24T08:55:02;10.90;99.90
59703;DHT22;45570;48.782;8.332;2023-04-24T08:57:32;10.90;99.90
59703;DHT22;45570;48.782;8.332;2023-04-24T09:00:04;11.00;99.90
59703;DHT22;45570;48.782;8.332;2023-04-24T09:02:35;11.00;99.90
59703;DHT22;45570;48.782;8.332;2023-04-24T09:05:05;11.00;99.90
59703;DHT22;45570;48.782;8.332;2023-04-24T09:07:39;11.10;99.90
59703;DHT22;45570;48.782;8.332;2023-04-24T09:10:11;11.20;99.90
59703;DHT22;45570;48.782;8.332;2023-04-24T09:12:41;11.30;99.90
59703;DHT22;45570;48.782;8.332;2023-04-24T09:15:11;11.40;99.90
59703;DHT22;45570;48.782;8.332;2023-04-24T09:17:41;11.50;99.90
59703;DHT22;45570;48.782;8.332;2023-04-24T09:20:10;11.60;99.90
59703;DHT22;45570;48.782;8.332;2023-04-24T09:22:42;12.00;99.90
59703;DHT22;45570;48.782;8.332;2023-04-24T09:25:11;12.60;99.90
59703;DHT22;45570;48.782;8.332;2023-04-24T09:27:45;12.70;99.90
59703;DHT22;45570;48.782;8.332;2023-04-24T09:30:14;12.70;99.90
59703;DHT22;45570;48.782;8.332;2023-04-24T09:32:49;12.60;99.90
59703;DHT22;45570;48.782;8.332;2023-04-24T09:35:18;12.30;99.90
59703;DHT22;45570;48.782;8.332;2023-04-24T09:37:49;12.00;99.90
59703;DHT22;45570;48.782;8.332;2023-04-24T09:40:20;11.80;99.90
59703;DHT22;45570;48.782;8.332;2023-04-24T09:42:53;11.70;99.90
59703;DHT22;45570;48.782;8.332;2023-04-24T09:45:27;11.60;99.90
59703;DHT22;45570;48.782;8.332;2023-04-24T09:47:57;11.50;99.90
59703;DHT22;45570;48.782;8.332;2023-04-24T09:50:26;11.60;99.90
59703;DHT22;45570;48.782;8.332;2023-04-24T09:53:02;11.30;99.90
59703;DHT22;45570;48.782;8.332;2023-04-24T09:55:33;11.20;99.90
59703;DHT22;45570;48.782;8.332;2023-04-24T09:58:08;11.30;99.90
59703;DHT22;45570;48.782;8.332;2023-04-24T10:00:38;11.00;99.90
59703;DHT22;45570;48.782;8.332;2023-04-24T10:03:07;10.80;99.90
59703;DHT22;45570;48.782;8.332;2023-04-24T10:05:37;10.70;99.90
59703;DHT22;45570;48.782;8.332;2023-04-24T10:08:09;10.60;99.90
59703;DHT22;45570;48.782;8.332;2023-04-24T10:10:40;10.50;99.90
59703;DHT22;45570;48.782;8.332;2023-04-24T10:13:10;10.60;99.90
59703;DHT22;45570;48.782;8.332;2023-04-24T10:15:40;10.50;99.90
59703;DHT22;45570;48.782;8.332;2023-04-24T10:18:10;10.50;99.90
59703;DHT22;45570;48.782;8.332;2023-04-24T10:20:40;10.70;99.90
59703;DHT22;45570;48.782;8.332;2023-04-24T10:23:12;10.90;99.90
59703;DHT22;45570;48.782;8.332;2023-04-24T10:25:42;11.10;99.90
59703;DHT22;45570;48.782;8.332;2023-04-24T10:28:12;11.30;99.90
59703;DHT22;45570;48.782;8.332;2023-04-24T10:30:43;11.30;99.90
59703;DHT22;45570;48.782;8.332;2023-04-24T10:33:14;11.30;99.90
59703;DHT22;45570;48.782;8.332;2023-04-24T10:35:45;11.20;99.90
59703;DHT22;45570;48.782;8.332;2023-04-24T10:38:22;11.10;99.90
59703;DHT22;45570;48.782;8.332;2023-04-24T10:41:06;11.00;99.90
59703;DHT22;45570;48.782;8.332;2023-04-24T10:43:36;10.80;99.90
59703;DHT22;45570;48.782;8.332;2023-04-24T10:46:08;10.80;99.90
59703;DHT22;45570;48.782;8.332;2023-04-24T10:48:42;11.00;99.90
59703;DHT22;45570;48.782;8.332;2023-04-24T10:51:14;11.20;99.90
59703;DHT22;45570;48.782;8.332;2023-04-24T10:53:45;11.50;99.90
59703;DHT22;45570;48.782;8.332;2023-04-24T10:56:16;11.80;99.90
59703;DHT22;45570;48.782;8.332;2023-04-24T10:58:51;11.90;99.90
59703;DHT22;45570;48.782;8.332;2023-04-24T11:01:25;12.00;99.90
59703;DHT22;45570;48.782;8.332;2023-04-24T11:03:56;12.00;99.90
59703;DHT22;45570;48.782;8.332;2023-04-24T11:06:30;12.00;99.90
59703;DHT22;45570;48.782;8.332;2023-04-24T11:09:06;11.70;99.90
59703;DHT22;45570;48.782;8.332;2023-04-24T11:11:37;11.70;99.90
59703;DHT22;45570;48.782;8.332;2023-04-24T11:14:08;11.50;99.90
59703;DHT22;45570;48.782;8.332;2023-04-24T11:16:42;11.40;99.90
59703;DHT22;45570;48.782;8.332;2023-04-24T11:19:21;11.30;99.90
59703;DHT22;45570;48.782;8.332;2023-04-24T11:21:57;11.20;99.90
59703;DHT22;45570;48.782;8.332;2023-04-24T11:24:37;11.10;99.90
59703;DHT22;45570;48.782;8.332;2023-04-24T11:27:18;11.10;99.90
59703;DHT22;45570;48.782;8.332;2023-04-24T11:29:49;11.10;99.90
59703;DHT22;45570;48.782;8.332;2023-04-24T11:32:26;11.10;99.90
59703;DHT22;45570;48.782;8.332;2023-04-24T11:34:57;11.20;99.90
59703;DHT22;45570;48.782;8.332;2023-04-24T11:37:27;11.20;99.90
59703;DHT22;45570;48.782;8.332;2023-04-24T11:39:59;11.40;99.90
59703;DHT22;45570;48.782;8.332;2023-04-24T11:42:33;11.50;99.90
59703;DHT22;45570;48.782;8.332;2023-04-24T11:45:08;11.50;99.90
59703;DHT22;45570;48.782;8.332;2023-04-24T11:47:39;11.40;99.90
59703;DHT22;45570;48.782;8.332;2023-04-24T11:50:10;11.20;99.90
59703;DHT22;45570;48.782;8.332;2023-04-24T11:52:42;11.00;99.90
59703;DHT22;45570;48.782;8.332;2023-04-24T11:55:25;10.80;99.90
59703;DHT22;45570;48.782;8.332;2023-04-24T11:57:56;10.70;99.90
59703;DHT22;45570;48.782;8.332;2023-04-24T12:00:27;10.70;99.90
59703;DHT22;45570;48.782;8.332;2023-04-24T12:03:05;10.80;99.90
59703;DHT22;45570;48.782;8.332;2023-04-24T12:05:35;10.90;99.90
59703;DHT22;45570;48.782;8.332;2023-04-24T12:08:05;11.00;99.90
59703;DHT22;45570;48.782;8.332;2023-04-24T12:10:36;11.10;99.90
59703;DHT22;45570;48.782;8.332;2023-04-24T12:13:05;11.40;99.90
59703;DHT22;45570;48.782;8.332;2023-04-24T12:15:40;11.40;99.90
59703;DHT22;45570;48.782;8.332;2023-04-24T12:18:12;11.40;99.90
59703;DHT22;45570;48.782;8.332;2023-04-24T12:20:41;11.30;99.90
59703;DHT22;45570;48.782;8.332;2023-04-24T12:23:10;11.30;99.90
59703;DHT22;45570;48.782;8.332;2023-04-24T12:25:41;11.40;99.90
59703;DHT22;45570;48.782;8.332;2023-04-24T12:28:11;11.50;99.90
59703;DHT22;45570;48.782;8.332;2023-04-24T12:30:41;11.50;99.90
59703;DHT22;45570;48.782;8.332;2023-04-24T12:33:12;11.40;99.90
59703;DHT22;45570;48.782;8.332;2023-04-24T12:35:41;11.20;99.90
59703;DHT22;45570;48.782;8.332;2023-04-24T12:38:12;11.10;99.90
59703;DHT22;45570;48.782;8.332;2023-04-24T12:40:43;11.10;99.90
59703;DHT22;45570;48.782;8.332;2023-04-24T12:43:16;11.10;99.90
59703;DHT22;45570;48.782;8.332;2023-04-24T12:45:48;11.40;99.90
59703;DHT22;45570;48.782;8.332;2023-04-24T12:48:17;11.80;99.90
59703;DHT22;45570;48.782;8.332;2023-04-24T12:50:47;12.40;99.90
59703;DHT22;45570;48.782;8.332;2023-04-24T12:53:17;12.80;99.90
59703;DHT22;45570;48.782;8.332;2023-04-24T12:55:56;13.20;99.90
59703;DHT22;45570;48.782;8.332;2023-04-24T12:58:28;13.40;99.90
59703;DHT22;45570;48.782;8.332;2023-04-24T13:00:57;13.40;99.90
59703;DHT22;45570;48.782;8.332;2023-04-24T13:03:26;13.30;99.90
59703;DHT22;45570;48.782;8.332;2023-04-24T13:05:56;13.50;99.90
59703;DHT22;45570;48.782;8.332;2023-04-24T13:08:25;13.60;99.90
59703;DHT22;45570;48.782;8.332;2023-04-24T13:10:55;13.60;99.90
59703;DHT22;45570;48.782;8.332;2023-04-24T13:13:25;13.70;99.90
59703;DHT22;45570;48.782;8.332;2023-04-24T13:15:54;13.90;99.90
59703;DHT22;45570;48.782;8.332;2023-04-24T13:18:24;14.20;99.90
59703;DHT22;45570;48.782;8.332;2023-04-24T13:20:54;14.20;99.90
59703;DHT22;45570;48.782;8.332;2023-04-24T13:23:25;14.30;99.90
59703;DHT22;45570;48.782;8.332;2023-04-24T13:25:56;14.00;99.90
59703;DHT22;45570;48.782;8.332;2023-04-24T13:28:26;13.70;99.90
59703;DHT22;45570;48.782;8.332;2023-04-24T13:30:55;13.40;99.90
59703;DHT22;45570;48.782;8.332;2023-04-24T13:33:25;13.00;99.90
59703;DHT22;45570;48.782;8.332;2023-04-24T13:35:54;12.80;99.90
59703;DHT22;45570;48.782;8.332;2023-04-24T13:38:24;12.40;99.90
59703;DHT22;45570;48.782;8.332;2023-04-24T13:40:55;12.30;99.90
59703;DHT22;45570;48.782;8.332;2023-04-24T13:43:24;12.30;99.90
59703;DHT22;45570;48.782;8.332;2023-04-24T13:45:53;12.30;99.90
59703;DHT22;45570;48.782;8.332;2023-04-24T13:48:22;12.20;99.90
59703;DHT22;45570;48.782;8.332;2023-04-24T13:50:52;12.10;99.90
59703;DHT22;45570;48.782;8.332;2023-04-24T13:53:21;11.90;99.90
59703;DHT22;45570;48.782;8.332;2023-04-24T13:55:50;11.90;99.90
59703;DHT22;45570;48.782;8.332;2023-04-24T13:58:21;11.90;99.90
59703;DHT22;45570;48.782;8.332;2023-04-24T14:00:50;11.90;99.90
59703;DHT22;45570;48.782;8.332;2023-04-24T14:03:19;12.00;99.90
59703;DHT22;45570;48.782;8.332;2023-04-24T14:05:48;12.00;99.90
59703;DHT22;45570;48.782;8.332;2023-04-24T14:08:18;12.00;99.90
59703;DHT22;45570;48.782;8.332;2023-04-24T14:10:47;12.00;99.90
59703;DHT22;45570;48.782;8.332;2023-04-24T14:13:16;11.80;99.90
59703;DHT22;45570;48.782;8.332;2023-04-24T14:15:48;11.70;99.90
59703;DHT22;45570;48.782;8.332;2023-04-24T14:18:17;11.50;99.90
59703;DHT22;45570;48.782;8.332;2023-04-24T14:20:46;11.50;99.90
59703;DHT22;45570;48.782;8.332;2023-04-24T14:23:16;11.20;99.90
59703;DHT22;45570;48.782;8.332;2023-04-24T14:25:45;11.10;99.90
59703;DHT22;45570;48.782;8.332;2023-04-24T14:28:18;11.00;99.90
59703;DHT22;45570;48.782;8.332;2023-04-24T14:30:49;10.90;99.90
59703;DHT22;45570;48.782;8.332;2023-04-24T14:33:18;11.00;99.90
59703;DHT22;45570;48.782;8.332;2023-04-24T14:35:48;11.00;99.90
59703;DHT22;45570;48.782;8.332;2023-04-24T14:38:17;11.00;99.90
59703;DHT22;45570;48.782;8.332;2023-04-24T14:40:46;10.90;99.90
59703;DHT22;45570;48.782;8.332;2023-04-24T14:43:18;10.80;99.90
59703;DHT22;45570;48.782;8.332;2023-04-24T14:45:49;10.80;99.90
59703;DHT22;45570;48.782;8.332;2023-04-24T14:48:18;10.70;99.90
59703;DHT22;45570;48.782;8.332;2023-04-24T14:50:47;10.70;99.90
59703;DHT22;45570;48.782;8.332;2023-04-24T14:53:16;10.60;99.90
59703;DHT22;45570;48.782;8.332;2023-04-24T14:55:46;10.60;99.90
59703;DHT22;45570;48.782;8.332;2023-04-24T14:58:15;10.60;99.90
59703;DHT22;45570;48.782;8.332;2023-04-24T15:00:45;10.60;99.90
59703;DHT22;45570;48.782;8.332;2023-04-24T15:03:16;10.80;99.90
59703;DHT22;45570;48.782;8.332;2023-04-24T15:05:46;10.90;99.90
59703;DHT22;45570;48.782;8.332;2023-04-24T15:08:15;11.00;99.90
59703;DHT22;45570;48.782;8.332;2023-04-24T15:10:44;11.10;99.90
59703;DHT22;45570;48.782;8.332;2023-04-24T15:13:13;11.10;99.90
59703;DHT22;45570;48.782;8.332;2023-04-24T15:15:43;11.10;99.90
59703;DHT22;45570;48.782;8.332;2023-04-24T15:18:12;11.00;99.90
59703;DHT22;45570;48.782;8.332;2023-04-24T15:20:43;11.00;99.90
59703;DHT22;45570;48.782;8.332;2023-04-24T15:23:13;11.00;99.90
59703;DHT22;45570;48.782;8.332;2023-04-24T15:25:42;11.00;99.90
59703;DHT22;45570;48.782;8.332;2023-04-24T15:28:11;11.00;99.90
59703;DHT22;45570;48.782;8.332;2023-04-24T15:30:41;11.00;99.90
59703;DHT22;45570;48.782;8.332;2023-04-24T15:33:10;11.10;99.90
59703;DHT22;45570;48.782;8.332;2023-04-24T15:35:39;11.10;99.90
59703;DHT22;45570;48.782;8.332;2023-04-24T15:38:11;11.20;99.90
59703;DHT22;45570;48.782;8.332;2023-04-24T15:40:40;11.40;99.90
59703;DHT22;45570;48.782;8.332;2023-04-24T15:43:09;11.70;99.90
59703;DHT22;45570;48.782;8.332;2023-04-24T15:45:39;11.90;99.90
59703;DHT22;45570;48.782;8.332;2023-04-24T15:48:09;11.90;99.90
59703;DHT22;45570;48.782;8.332;2023-04-24T15:50:38;11.90;99.90
59703;DHT22;45570;48.782;8.332;2023-04-24T15:56:58;11.90;99.90
59703;DHT22;45570;48.782;8.332;2023-04-24T15:59:29;12.10;99.90
59703;DHT22;45570;48.782;8.332;2023-04-24T16:01:58;12.20;99.90
59703;DHT22;45570;48.782;8.332;2023-04-24T16:04:28;12.30;99.90
59703;DHT22;45570;48.782;8.332;2023-04-24T16:06:58;12.40;99.90
59703;DHT22;45570;48.782;8.332;2023-04-24T16:09:27;12.30;99.90
59703;DHT22;45570;48.782;8.332;2023-04-24T16:11:58;12.20;99.90
59703;DHT22;45570;48.782;8.332;2023-04-24T16:14:27;12.30;99.90
59703;DHT22;45570;48.782;8.332;2023-04-24T16:16:57;12.50;99.90
59703;DHT22;45570;48.782;8.332;2023-04-24T16:19:31;12.50;99.90
59703;DHT22;45570;48.782;8.332;2023-04-24T16:22:02;12.60;99.90
59703;DHT22;45570;48.782;8.332;2023-04-24T16:24:32;12.50;99.90
59703;DHT22;45570;48.782;8.332;2023-04-24T16:27:03;12.40;99.90
59703;DHT22;45570;48.782;8.332;2023-04-24T16:29:33;12.20;99.90
59703;DHT22;45570;48.782;8.332;2023-04-24T16:32:02;12.00;99.90
59703;DHT22;45570;48.782;8.332;2023-04-24T16:34:31;11.80;99.90
59703;DHT22;45570;48.782;8.332;2023-04-24T16:37:00;11.70;99.90
59703;DHT22;45570;48.782;8.332;2023-04-24T16:39:30;11.60;99.90
59703;DHT22;45570;48.782;8.332;2023-04-24T16:41:59;11.60;99.90
59703;DHT22;45570;48.782;8.332;2023-04-24T16:44:30;11.50;99.90
59703;DHT22;45570;48.782;8.332;2023-04-24T16:46:59;11.60;99.90
59703;DHT22;45570;48.782;8.332;2023-04-24T16:49:29;11.60;99.90
59703;DHT22;45570;48.782;8.332;2023-04-24T16:51:59;11.60;99.90
59703;DHT22;45570;48.782;8.332;2023-04-24T16:54:29;11.60;99.90
59703;DHT22;45570;48.782;8.332;2023-04-24T16:57:01;11.60;99.90
59703;DHT22;45570;48.782;8.332;2023-04-24T16:59:32;11.50;99.90
59703;DHT22;45570;48.782;8.332;2023-04-24T17:02:02;11.40;99.90
59703;DHT22;45570;48.782;8.332;2023-04-24T17:04:31;11.40;99.90
59703;DHT22;45570;48.782;8.332;2023-04-24T17:07:02;11.40;99.90
59703;DHT22;45570;48.782;8.332;2023-04-24T17:09:31;11.40;99.90
59703;DHT22;45570;48.782;8.332;2023-04-24T17:12:00;11.30;99.90
59703;DHT22;45570;48.782;8.332;2023-04-24T17:14:30;11.40;99.90
59703;DHT22;45570;48.782;8.332;2023-04-24T17:17:00;11.40;99.90
59703;DHT22;45570;48.782;8.332;2023-04-24T17:19:30;11.30;99.90
59703;DHT22;45570;48.782;8.332;2023-04-24T17:21:59;11.30;99.90
59703;DHT22;45570;48.782;8.332;2023-04-24T17:24:32;11.30;99.90
59703;DHT22;45570;48.782;8.332;2023-04-24T17:27:02;11.30;99.90
59703;DHT22;45570;48.782;8.332;2023-04-24T17:29:41;11.30;99.90
59703;DHT22;45570;48.782;8.332;2023-04-24T17:32:12;11.20;99.90
59703;DHT22;45570;48.782;8.332;2023-04-24T17:34:41;11.10;99.90
59703;DHT22;45570;48.782;8.332;2023-04-24T17:37:11;11.10;99.90
59703;DHT22;45570;48.782;8.332;2023-04-24T17:39:40;11.00;99.90
59703;DHT22;45570;48.782;8.332;2023-04-24T17:42:10;11.00;99.90
59703;DHT22;45570;48.782;8.332;2023-04-24T17:44:39;11.00;99.90
59703;DHT22;45570;48.782;8.332;2023-04-24T17:47:08;11.00;99.90
59703;DHT22;45570;48.782;8.332;2023-04-24T17:49:39;11.00;99.90
59703;DHT22;45570;48.782;8.332;2023-04-24T17:52:09;11.00;99.90
59703;DHT22;45570;48.782;8.332;2023-04-24T17:54:40;10.90;99.90
59703;DHT22;45570;48.782;8.332;2023-04-24T17:57:10;10.80;99.90
59703;DHT22;45570;48.782;8.332;2023-04-24T17:59:39;10.70;99.90
59703;DHT22;45570;48.782;8.332;2023-04-24T18:02:08;10.50;99.90
59703;DHT22;45570;48.782;8.332;2023-04-24T18:04:39;10.50;99.90
59703;DHT22;45570;48.782;8.332;2023-04-24T18:07:10;10.30;99.90
59703;DHT22;45570;48.782;8.332;2023-04-24T18:09:39;10.20;99.90
59703;DHT22;45570;48.782;8.332;2023-04-24T18:12:08;10.20;99.90
59703;DHT22;45570;48.782;8.332;2023-04-24T18:14:37;10.20;99.90
59703;DHT22;45570;48.782;8.332;2023-04-24T18:17:06;10.10;99.90
59703;DHT22;45570;48.782;8.332;2023-04-24T18:19:35;10.00;99.90
59703;DHT22;45570;48.782;8.332;2023-04-24T18:22:07;9.80;99.90
59703;DHT22;45570;48.782;8.332;2023-04-24T18:24:36;9.70;99.90
59703;DHT22;45570;48.782;8.332;2023-04-24T18:27:05;9.80;99.90
59703;DHT22;45570;48.782;8.332;2023-04-24T18:29:34;9.80;99.90
59703;DHT22;45570;48.782;8.332;2023-04-24T18:32:03;9.60;99.90
59703;DHT22;45570;48.782;8.332;2023-04-24T18:34:33;9.50;99.90
59703;DHT22;45570;48.782;8.332;2023-04-24T18:37:02;9.30;99.90
59703;DHT22;45570;48.782;8.332;2023-04-24T18:39:32;9.10;99.90
59703;DHT22;45570;48.782;8.332;2023-04-24T18:42:01;9.20;99.90
59703;DHT22;45570;48.782;8.332;2023-04-24T18:44:31;9.10;99.90
59703;DHT22;45570;48.782;8.332;2023-04-24T18:47:00;9.10;99.90
59703;DHT22;45570;48.782;8.332;2023-04-24T18:49:29;9.00;99.90
59703;DHT22;45570;48.782;8.332;2023-04-24T18:51:58;8.90;99.90
59703;DHT22;45570;48.782;8.332;2023-04-24T18:54:28;8.80;99.90
59703;DHT22;45570;48.782;8.332;2023-04-24T18:56:58;8.70;99.90
59703;DHT22;45570;48.782;8.332;2023-04-24T18:59:28;8.60;99.90
59703;DHT22;45570;48.782;8.332;2023-04-24T19:01:57;8.60;99.90
59703;DHT22;45570;48.782;8.332;2023-04-24T19:04:28;8.50;99.90
59703;DHT22;45570;48.782;8.332;2023-04-24T19:06:57;8.40;99.90
59703;DHT22;45570;48.782;8.332;2023-04-24T19:09:26;8.40;99.90
59703;DHT22;45570;48.782;8.332;2023-04-24T19:11:55;8.30;99.90
59703;DHT22;45570;48.782;8.332;2023-04-24T19:14:27;8.20;99.90
59703;DHT22;45570;48.782;8.332;2023-04-24T19:16:56;8.20;99.90
59703;DHT22;45570;48.782;8.332;2023-04-24T19:19:25;8.40;99.90
59703;DHT22;45570;48.782;8.332;2023-04-24T19:21:55;8.30;99.90
59703;DHT22;45570;48.782;8.332;2023-04-24T19:24:24;8.20;99.90
59703;DHT22;45570;48.782;8.332;2023-04-24T19:26:55;8.40;99.90
59703;DHT22;45570;48.782;8.332;2023-04-24T19:29:26;8.30;99.90
59703;DHT22;45570;48.782;8.332;2023-04-24T19:31:55;8.30;99.90
59703;DHT22;45570;48.782;8.332;2023-04-24T19:34:25;8.30;99.90
59703;DHT22;45570;48.782;8.332;2023-04-24T19:36:56;8.30;99.90
59703;DHT22;45570;48.782;8.332;2023-04-24T19:39:25;8.30;99.90
59703;DHT22;45570;48.782;8.332;2023-04-24T19:41:54;8.30;99.90
59703;DHT22;45570;48.782;8.332;2023-04-24T19:44:26;8.40;99.90
59703;DHT22;45570;48.782;8.332;2023-04-24T19:46:55;8.40;99.90
59703;DHT22;45570;48.782;8.332;2023-04-24T19:49:24;8.40;99.90
59703;DHT22;45570;48.782;8.332;2023-04-24T19:51:53;8.40;99.90
59703;DHT22;45570;48.782;8.332;2023-04-24T19:54:23;8.40;99.90
59703;DHT22;45570;48.782;8.332;2023-04-24T19:56:52;8.50;99.90
59703;DHT22;45570;48.782;8.332;2023-04-24T19:59:22;8.50;99.90
59703;DHT22;45570;48.782;8.332;2023-04-24T20:01:53;8.50;99.90
59703;DHT22;45570;48.782;8.332;2023-04-24T20:04:22;8.50;99.90
59703;DHT22;45570;48.782;8.332;2023-04-24T20:06:51;8.50;99.90
59703;DHT22;45570;48.782;8.332;2023-04-24T20:09:20;8.60;99.90
59703;DHT22;45570;48.782;8.332;2023-04-24T20:11:49;8.60;99.90
59703;DHT22;45570;48.782;8.332;2023-04-24T20:14:20;8.60;99.90
59703;DHT22;45570;48.782;8.332;2023-04-24T20:16:49;8.60;99.90
59703;DHT22;45570;48.782;8.332;2023-04-24T20:19:20;8.70;99.90
59703;DHT22;45570;48.782;8.332;2023-04-24T20:21:50;8.70;99.90
59703;DHT22;45570;48.782;8.332;2023-04-24T20:24:19;8.70;99.90
59703;DHT22;45570;48.782;8.332;2023-04-24T20:26:48;8.70;99.90
59703;DHT22;45570;48.782;8.332;2023-04-24T20:29:17;8.70;99.90
59703;DHT22;45570;48.782;8.332;2023-04-24T20:31:46;8.70;99.90
59703;DHT22;45570;48.782;8.332;2023-04-24T20:34:16;8.80;99.90
59703;DHT22;45570;48.782;8.332;2023-04-24T20:36:47;8.70;99.90
59703;DHT22;45570;48.782;8.332;2023-04-24T20:39:16;8.80;99.90
59703;DHT22;45570;48.782;8.332;2023-04-24T20:41:46;8.70;99.90
59703;DHT22;45570;48.782;8.332;2023-04-24T20:44:15;8.70;99.90
59703;DHT22;45570;48.782;8.332;2023-04-24T20:46:44;8.70;99.90
59703;DHT22;45570;48.782;8.332;2023-04-24T20:49:13;8.70;99.90
59703;DHT22;45570;48.782;8.332;2023-04-24T20:51:42;8.70;99.90
59703;DHT22;45570;48.782;8.332;2023-04-24T20:54:14;8.70;99.90
59703;DHT22;45570;48.782;8.332;2023-04-24T20:56:43;8.80;99.90
59703;DHT22;45570;48.782;8.332;2023-04-24T20:59:13;8.80;99.90
59703;DHT22;45570;48.782;8.332;2023-04-24T21:01:42;8.80;99.90
59703;DHT22;45570;48.782;8.332;2023-04-24T21:04:12;8.80;99.90
59703;DHT22;45570;48.782;8.332;2023-04-24T21:06:41;8.80;99.90
59703;DHT22;45570;48.782;8.332;2023-04-24T21:09:10;8.80;99.90
59703;DHT22;45570;48.782;8.332;2023-04-24T21:11:41;8.80;99.90
59703;DHT22;45570;48.782;8.332;2023-04-24T21:14:10;8.80;99.90
59703;DHT22;45570;48.782;8.332;2023-04-24T21:16:39;8.80;99.90
59703;DHT22;45570;48.782;8.332;2023-04-24T21:19:08;8.80;99.90
59703;DHT22;45570;48.782;8.332;2023-04-24T21:21:38;8.80;99.90
59703;DHT22;45570;48.782;8.332;2023-04-24T21:24:07;8.80;99.90
59703;DHT22;45570;48.782;8.332;2023-04-24T21:26:36;8.80;99.90
59703;DHT22;45570;48.782;8.332;2023-04-24T21:29:07;8.90;99.90
59703;DHT22;45570;48.782;8.332;2023-04-24T21:31:36;8.80;99.90
59703;DHT22;45570;48.782;8.332;2023-04-24T21:34:05;8.80;99.90
59703;DHT22;45570;48.782;8.332;2023-04-24T21:36:34;8.80;99.90
59703;DHT22;45570;48.782;8.332;2023-04-24T21:39:03;8.70;99.90
59703;DHT22;45570;48.782;8.332;2023-04-24T21:41:32;8.70;99.90
59703;DHT22;45570;48.782;8.332;2023-04-24T21:44:01;8.70;99.90